sensor_id;sensor_type;location;lat;lon;timestamp;temperature;humidity
44513;DHT22;30219;50.588;9.504;2023-03-21T00:00:13;8.10;99.90
44513;DHT22;30219;50.588;9.504;2023-03-21T00:02:38;8.10;99.90
44513;DHT22;30219;50.588;9.504;2023-03-21T00:05:04;8.00;99.90
44513;DHT22;30219;50.588;9.504;2023-03-21T00:07:30;8.00;99.90
44513;DHT22;30219;50.588;9.504;2023-03-21T00:09:55;8.00;99.90
44513;DHT22;30219;50.588;9.504;2023-03-21T00:12:21;8.00;99.90
44513;DHT22;30219;50.588;9.504;2023-03-21T00:14:46;8.00;99.90
44513;DHT22;30219;50.588;9.504;2023-03-21T00:17:11;8.00;99.90
44513;DHT22;30219;50.588;9.504;2023-03-21T00:19:37;8.00;99.90
44513;DHT22;30219;50.588;9.504;2023-03-21T00:22:03;8.00;99.90
44513;DHT22;30219;50.588;9.504;2023-03-21T00:24:28;8.00;99.90
44513;DHT22;30219;50.588;9.504;2023-03-21T00:26:55;8.00;99.90
44513;DHT22;30219;50.588;9.504;2023-03-21T00:29:20;8.00;99.90
44513;DHT22;30219;50.588;9.504;2023-03-21T00:31:45;7.90;99.90
44513;DHT22;30219;50.588;9.504;2023-03-21T00:34:11;7.90;99.90
44513;DHT22;30219;50.588;9.504;2023-03-21T00:36:36;7.90;99.90
44513;DHT22;30219;50.588;9.504;2023-03-21T00:39:02;7.90;99.90
44513;DHT22;30219;50.588;9.504;2023-03-21T00:41:30;7.90;99.90
44513;DHT22;30219;50.588;9.504;2023-03-21T00:43:56;8.10;99.90
44513;DHT22;30219;50.588;9.504;2023-03-21T00:46:21;8.10;99.90
44513;DHT22;30219;50.588;9.504;2023-03-21T00:48:47;8.10;99.90
44513;DHT22;30219;50.588;9.504;2023-03-21T00:51:13;8.10;99.90
44513;DHT22;30219;50.588;9.504;2023-03-21T00:53:40;8.10;99.90
44513;DHT22;30219;50.588;9.504;2023-03-21T00:56:05;8.20;99.90
44513;DHT22;30219;50.588;9.504;2023-03-21T00:58:31;8.30;99.90
44513;DHT22;30219;50.588;9.504;2023-03-21T01:00:56;8.30;99.90
44513;DHT22;30219;50.588;9.504;2023-03-21T01:03:22;8.30;99.90
44513;DHT22;30219;50.588;9.504;2023-03-21T01:05:50;8.30;99.90
44513;DHT22;30219;50.588;9.504;2023-03-21T01:08:35;8.30;99.90
44513;DHT22;30219;50.588;9.504;2023-03-21T01:11:02;8.30;99.90
44513;DHT22;30219;50.588;9.504;2023-03-21T01:13:29;8.20;99.90
44513;DHT22;30219;50.588;9.504;2023-03-21T01:15:55;8.10;99.90
44513;DHT22;30219;50.588;9.504;2023-03-21T01:18:22;8.00;99.90
44513;DHT22;30219;50.588;9.504;2023-03-21T01:20:49;8.00;99.90
44513;DHT22;30219;50.588;9.504;2023-03-21T01:23:15;8.00;99.90
44513;DHT22;30219;50.588;9.504;2023-03-21T01:25:41;8.10;99.90
44513;DHT22;30219;50.588;9.504;2023-03-21T01:28:07;8.20;99.90
44513;DHT22;30219;50.588;9.504;2023-03-21T01:30:33;8.20;99.90
44513;DHT22;30219;50.588;9.504;2023-03-21T01:32:58;8.30;99.90
44513;DHT22;30219;50.588;9.504;2023-03-21T01:35:24;8.30;99.90
44513;DHT22;30219;50.588;9.504;2023-03-21T01:37:50;8.30;99.90
44513;DHT22;30219;50.588;9.504;2023-03-21T01:40:20;8.30;99.90
44513;DHT22;30219;50.588;9.504;2023-03-21T01:42:46;8.30;99.90
44513;DHT22;30219;50.588;9.504;2023-03-21T01:47:55;8.20;99.90
44513;DHT22;30219;50.588;9.504;2023-03-21T01:50:21;8.10;99.90
44513;DHT22;30219;50.588;9.504;2023-03-21T01:52:47;8.10;99.90
44513;DHT22;30219;50.588;9.504;2023-03-21T01:55:14;8.10;99.90
44513;DHT22;30219;50.588;9.504;2023-03-21T01:57:41;8.10;99.90
44513;DHT22;30219;50.588;9.504;2023-03-21T02:00:09;8.00;99.90
44513;DHT22;30219;50.588;9.504;2023-03-21T02:02:37;8.00;99.90
44513;DHT22;30219;50.588;9.504;2023-03-21T02:05:14;8.00;99.90
44513;DHT22;30219;50.588;9.504;2023-03-21T02:07:41;8.00;99.90
44513;DHT22;30219;50.588;9.504;2023-03-21T02:10:09;8.00;99.90
44513;DHT22;30219;50.588;9.504;2023-03-21T02:12:35;7.90;99.90
44513;DHT22;30219;50.588;9.504;2023-03-21T02:15:00;7.90;99.90
44513;DHT22;30219;50.588;9.504;2023-03-21T02:25:18;7.90;99.90
44513;DHT22;30219;50.588;9.504;2023-03-21T02:27:53;7.90;99.90
44513;DHT22;30219;50.588;9.504;2023-03-21T02:35:52;7.90;99.90
44513;DHT22;30219;50.588;9.504;2023-03-21T02:41:05;7.70;99.90
44513;DHT22;30219;50.588;9.504;2023-03-21T02:43:42;7.70;99.90
44513;DHT22;30219;50.588;9.504;2023-03-21T02:46:12;7.70;99.90
44513;DHT22;30219;50.588;9.504;2023-03-21T02:48:47;7.70;99.90
44513;DHT22;30219;50.588;9.504;2023-03-21T02:51:16;7.70;99.90
44513;DHT22;30219;50.588;9.504;2023-03-21T02:53:43;7.60;99.90
44513;DHT22;30219;50.588;9.504;2023-03-21T02:56:10;7.70;99.90
44513;DHT22;30219;50.588;9.504;2023-03-21T02:58:36;7.60;99.90
44513;DHT22;30219;50.588;9.504;2023-03-21T03:01:02;7.60;99.90
44513;DHT22;30219;50.588;9.504;2023-03-21T03:03:27;7.60;99.90
44513;DHT22;30219;50.588;9.504;2023-03-21T03:05:55;7.60;99.90
44513;DHT22;30219;50.588;9.504;2023-03-21T03:13:39;7.70;99.90
44513;DHT22;30219;50.588;9.504;2023-03-21T03:16:15;7.80;99.90
44513;DHT22;30219;50.588;9.504;2023-03-21T03:18:54;7.90;99.90
44513;DHT22;30219;50.588;9.504;2023-03-21T03:21:23;7.90;99.90
44513;DHT22;30219;50.588;9.504;2023-03-21T03:24:00;7.90;99.90
44513;DHT22;30219;50.588;9.504;2023-03-21T03:26:32;7.90;99.90
44513;DHT22;30219;50.588;9.504;2023-03-21T03:29:03;7.80;99.90
44513;DHT22;30219;50.588;9.504;2023-03-21T03:31:44;7.80;99.90
44513;DHT22;30219;50.588;9.504;2023-03-21T03:34:12;7.80;99.90
44513;DHT22;30219;50.588;9.504;2023-03-21T03:36:39;7.80;99.90
44513;DHT22;30219;50.588;9.504;2023-03-21T03:39:07;7.70;99.90
44513;DHT22;30219;50.588;9.504;2023-03-21T03:41:34;7.60;99.90
44513;DHT22;30219;50.588;9.504;2023-03-21T03:44:02;7.60;99.90
44513;DHT22;30219;50.588;9.504;2023-03-21T03:46:31;7.50;99.90
44513;DHT22;30219;50.588;9.504;2023-03-21T03:49:09;7.50;99.90
44513;DHT22;30219;50.588;9.504;2023-03-21T03:51:51;7.50;99.90
44513;DHT22;30219;50.588;9.504;2023-03-21T03:54:20;7.50;99.90
44513;DHT22;30219;50.588;9.504;2023-03-21T03:56:46;7.60;99.90
44513;DHT22;30219;50.588;9.504;2023-03-21T03:59:14;7.50;99.90
44513;DHT22;30219;50.588;9.504;2023-03-21T04:01:43;7.60;99.90
44513;DHT22;30219;50.588;9.504;2023-03-21T04:04:09;7.60;99.90
44513;DHT22;30219;50.588;9.504;2023-03-21T04:06:35;7.60;99.90
44513;DHT22;30219;50.588;9.504;2023-03-21T04:09:01;7.50;99.90
44513;DHT22;30219;50.588;9.504;2023-03-21T04:11:29;7.50;99.90
44513;DHT22;30219;50.588;9.504;2023-03-21T04:13:54;7.60;99.90
44513;DHT22;30219;50.588;9.504;2023-03-21T04:16:20;7.60;99.90
44513;DHT22;30219;50.588;9.504;2023-03-21T04:18:47;7.60;99.90
44513;DHT22;30219;50.588;9.504;2023-03-21T04:21:13;7.70;99.90
44513;DHT22;30219;50.588;9.504;2023-03-21T04:23:39;7.70;99.90
44513;DHT22;30219;50.588;9.504;2023-03-21T04:26:05;7.60;99.90
44513;DHT22;30219;50.588;9.504;2023-03-21T04:28:30;7.60;99.90
44513;DHT22;30219;50.588;9.504;2023-03-21T04:30:56;7.60;99.90
44513;DHT22;30219;50.588;9.504;2023-03-21T04:33:22;7.60;99.90
44513;DHT22;30219;50.588;9.504;2023-03-21T04:35:50;7.60;99.90
44513;DHT22;30219;50.588;9.504;2023-03-21T04:38:24;7.60;99.90
44513;DHT22;30219;50.588;9.504;2023-03-21T04:40:51;7.60;99.90
44513;DHT22;30219;50.588;9.504;2023-03-21T04:43:16;7.60;99.90
44513;DHT22;30219;50.588;9.504;2023-03-21T04:45:42;7.60;99.90
44513;DHT22;30219;50.588;9.504;2023-03-21T04:48:07;7.60;99.90
44513;DHT22;30219;50.588;9.504;2023-03-21T04:50:33;7.50;99.90
44513;DHT22;30219;50.588;9.504;2023-03-21T04:52:59;7.50;99.90
44513;DHT22;30219;50.588;9.504;2023-03-21T04:55:24;7.50;99.90
44513;DHT22;30219;50.588;9.504;2023-03-21T04:57:52;7.50;99.90
44513;DHT22;30219;50.588;9.504;2023-03-21T05:00:18;7.50;99.90
44513;DHT22;30219;50.588;9.504;2023-03-21T05:02:43;7.50;99.90
44513;DHT22;30219;50.588;9.504;2023-03-21T05:05:09;7.50;99.90
44513;DHT22;30219;50.588;9.504;2023-03-21T05:07:36;7.60;99.90
44513;DHT22;30219;50.588;9.504;2023-03-21T05:10:02;7.60;99.90
44513;DHT22;30219;50.588;9.504;2023-03-21T05:12:28;7.60;99.90
44513;DHT22;30219;50.588;9.504;2023-03-21T05:14:54;7.60;99.90
44513;DHT22;30219;50.588;9.504;2023-03-21T05:17:19;7.70;99.90
44513;DHT22;30219;50.588;9.504;2023-03-21T05:19:47;7.70;99.90
44513;DHT22;30219;50.588;9.504;2023-03-21T05:22:15;7.70;99.90
44513;DHT22;30219;50.588;9.504;2023-03-21T05:24:43;7.70;99.90
44513;DHT22;30219;50.588;9.504;2023-03-21T05:27:15;7.70;99.90
44513;DHT22;30219;50.588;9.504;2023-03-21T05:32:26;7.70;99.90
44513;DHT22;30219;50.588;9.504;2023-03-21T05:34:51;7.70;99.90
44513;DHT22;30219;50.588;9.504;2023-03-21T05:37:17;7.80;99.90
44513;DHT22;30219;50.588;9.504;2023-03-21T05:39:42;7.80;99.90
44513;DHT22;30219;50.588;9.504;2023-03-21T05:42:08;7.80;99.90
44513;DHT22;30219;50.588;9.504;2023-03-21T05:44:33;7.80;99.90
44513;DHT22;30219;50.588;9.504;2023-03-21T05:46:59;7.70;99.90
44513;DHT22;30219;50.588;9.504;2023-03-21T05:49:24;7.70;99.90
44513;DHT22;30219;50.588;9.504;2023-03-21T05:51:51;7.60;99.90
44513;DHT22;30219;50.588;9.504;2023-03-21T05:54:16;7.60;99.90
44513;DHT22;30219;50.588;9.504;2023-03-21T05:56:42;7.50;99.90
44513;DHT22;30219;50.588;9.504;2023-03-21T05:59:07;7.50;99.90
44513;DHT22;30219;50.588;9.504;2023-03-21T06:01:33;7.60;99.90
44513;DHT22;30219;50.588;9.504;2023-03-21T06:03:58;7.60;99.90
44513;DHT22;30219;50.588;9.504;2023-03-21T06:06:24;7.60;99.90
44513;DHT22;30219;50.588;9.504;2023-03-21T06:08:49;7.60;99.90
44513;DHT22;30219;50.588;9.504;2023-03-21T06:11:19;7.50;99.90
44513;DHT22;30219;50.588;9.504;2023-03-21T06:13:46;7.60;99.90
44513;DHT22;30219;50.588;9.504;2023-03-21T06:16:12;7.60;99.90
44513;DHT22;30219;50.588;9.504;2023-03-21T06:18:37;7.70;99.90
44513;DHT22;30219;50.588;9.504;2023-03-21T06:21:03;7.80;99.90
44513;DHT22;30219;50.588;9.504;2023-03-21T06:23:28;7.80;99.90
44513;DHT22;30219;50.588;9.504;2023-03-21T06:25:54;7.90;99.90
44513;DHT22;30219;50.588;9.504;2023-03-21T06:28:19;7.80;99.90
44513;DHT22;30219;50.588;9.504;2023-03-21T06:30:45;7.80;99.90
44513;DHT22;30219;50.588;9.504;2023-03-21T06:33:10;7.90;99.90
44513;DHT22;30219;50.588;9.504;2023-03-21T06:35:36;7.80;99.90
44513;DHT22;30219;50.588;9.504;2023-03-21T06:38:01;7.90;99.90
44513;DHT22;30219;50.588;9.504;2023-03-21T06:40:27;7.90;99.90
44513;DHT22;30219;50.588;9.504;2023-03-21T06:42:53;7.80;99.90
44513;DHT22;30219;50.588;9.504;2023-03-21T06:45:18;7.80;99.90
44513;DHT22;30219;50.588;9.504;2023-03-21T06:47:44;7.80;99.90
44513;DHT22;30219;50.588;9.504;2023-03-21T06:50:09;8.00;99.90
44513;DHT22;30219;50.588;9.504;2023-03-21T06:52:35;8.60;99.90
44513;DHT22;30219;50.588;9.504;2023-03-21T06:55:00;9.40;99.90
44513;DHT22;30219;50.588;9.504;2023-03-21T06:57:26;10.20;99.90
44513;DHT22;30219;50.588;9.504;2023-03-21T06:59:51;11.20;99.90
44513;DHT22;30219;50.588;9.504;2023-03-21T07:02:17;11.90;99.90
44513;DHT22;30219;50.588;9.504;2023-03-21T07:04:42;12.20;99.90
44513;DHT22;30219;50.588;9.504;2023-03-21T07:07:08;12.20;99.90
44513;DHT22;30219;50.588;9.504;2023-03-21T07:09:33;12.40;99.90
44513;DHT22;30219;50.588;9.504;2023-03-21T07:11:59;12.60;99.90
44513;DHT22;30219;50.588;9.504;2023-03-21T07:14:24;12.50;99.90
44513;DHT22;30219;50.588;9.504;2023-03-21T07:16:50;12.50;99.90
44513;DHT22;30219;50.588;9.504;2023-03-21T07:19:15;12.20;99.90
44513;DHT22;30219;50.588;9.504;2023-03-21T07:21:41;12.00;99.90
44513;DHT22;30219;50.588;9.504;2023-03-21T07:24:06;11.60;99.90
44513;DHT22;30219;50.588;9.504;2023-03-21T07:26:32;11.30;99.90
44513;DHT22;30219;50.588;9.504;2023-03-21T07:28:57;11.00;99.90
44513;DHT22;30219;50.588;9.504;2023-03-21T07:31:23;10.90;99.90
44513;DHT22;30219;50.588;9.504;2023-03-21T07:33:51;10.60;99.90
44513;DHT22;30219;50.588;9.504;2023-03-21T07:36:16;10.40;99.90
44513;DHT22;30219;50.588;9.504;2023-03-21T07:38:42;10.40;99.90
44513;DHT22;30219;50.588;9.504;2023-03-21T07:41:08;10.20;99.90
44513;DHT22;30219;50.588;9.504;2023-03-21T07:43:34;10.10;99.90
44513;DHT22;30219;50.588;9.504;2023-03-21T07:46:00;10.00;99.90
44513;DHT22;30219;50.588;9.504;2023-03-21T07:48:25;10.10;99.90
44513;DHT22;30219;50.588;9.504;2023-03-21T07:50:51;10.10;99.90
44513;DHT22;30219;50.588;9.504;2023-03-21T07:53:17;10.20;99.90
44513;DHT22;30219;50.588;9.504;2023-03-21T07:55:42;10.40;99.90
44513;DHT22;30219;50.588;9.504;2023-03-21T07:58:08;11.10;99.90
44513;DHT22;30219;50.588;9.504;2023-03-21T08:00:33;11.50;99.90
44513;DHT22;30219;50.588;9.504;2023-03-21T08:02:59;11.90;99.90
44513;DHT22;30219;50.588;9.504;2023-03-21T08:05:26;12.00;99.90
44513;DHT22;30219;50.588;9.504;2023-03-21T08:07:52;12.20;99.90
44513;DHT22;30219;50.588;9.504;2023-03-21T08:10:17;12.30;99.90
44513;DHT22;30219;50.588;9.504;2023-03-21T08:12:43;12.40;99.90
44513;DHT22;30219;50.588;9.504;2023-03-21T08:15:09;12.00;99.90
44513;DHT22;30219;50.588;9.504;2023-03-21T08:17:35;11.60;99.90
44513;DHT22;30219;50.588;9.504;2023-03-21T08:20:04;11.50;99.90
44513;DHT22;30219;50.588;9.504;2023-03-21T08:22:32;11.60;99.90
44513;DHT22;30219;50.588;9.504;2023-03-21T08:24:57;11.80;99.90
44513;DHT22;30219;50.588;9.504;2023-03-21T08:27:23;12.20;99.90
44513;DHT22;30219;50.588;9.504;2023-03-21T08:29:48;12.40;99.90
44513;DHT22;30219;50.588;9.504;2023-03-21T08:32:16;12.50;99.90
44513;DHT22;30219;50.588;9.504;2023-03-21T08:34:42;12.80;99.90
44513;DHT22;30219;50.588;9.504;2023-03-21T08:37:07;13.00;99.90
44513;DHT22;30219;50.588;9.504;2023-03-21T08:39:33;13.10;99.90
44513;DHT22;30219;50.588;9.504;2023-03-21T08:41:58;12.80;99.90
44513;DHT22;30219;50.588;9.504;2023-03-21T08:44:24;12.80;99.90
44513;DHT22;30219;50.588;9.504;2023-03-21T08:46:50;12.60;99.90
44513;DHT22;30219;50.588;9.504;2023-03-21T08:49:15;12.80;99.90
44513;DHT22;30219;50.588;9.504;2023-03-21T08:51:41;13.00;99.90
44513;DHT22;30219;50.588;9.504;2023-03-21T08:54:19;13.20;99.90
44513;DHT22;30219;50.588;9.504;2023-03-21T08:56:45;13.20;99.90
44513;DHT22;30219;50.588;9.504;2023-03-21T08:59:10;13.20;99.90
44513;DHT22;30219;50.588;9.504;2023-03-21T09:01:36;13.00;99.90
44513;DHT22;30219;50.588;9.504;2023-03-21T09:04:01;12.70;99.90
44513;DHT22;30219;50.588;9.504;2023-03-21T09:06:28;12.40;99.90
44513;DHT22;30219;50.588;9.504;2023-03-21T09:08:54;12.50;99.90
44513;DHT22;30219;50.588;9.504;2023-03-21T09:11:21;12.60;99.90
44513;DHT22;30219;50.588;9.504;2023-03-21T09:13:46;13.00;99.90
44513;DHT22;30219;50.588;9.504;2023-03-21T09:16:12;12.90;99.90
44513;DHT22;30219;50.588;9.504;2023-03-21T09:18:37;13.00;99.90
44513;DHT22;30219;50.588;9.504;2023-03-21T09:21:09;13.00;99.90
44513;DHT22;30219;50.588;9.504;2023-03-21T09:23:39;12.80;99.90
44513;DHT22;30219;50.588;9.504;2023-03-21T09:26:06;13.00;99.90
44513;DHT22;30219;50.588;9.504;2023-03-21T09:28:32;12.70;99.90
44513;DHT22;30219;50.588;9.504;2023-03-21T09:30:57;12.50;99.90
44513;DHT22;30219;50.588;9.504;2023-03-21T09:33:23;12.50;99.90
44513;DHT22;30219;50.588;9.504;2023-03-21T09:35:49;12.50;99.90
44513;DHT22;30219;50.588;9.504;2023-03-21T09:38:15;12.90;99.90
44513;DHT22;30219;50.588;9.504;2023-03-21T09:40:50;13.50;99.90
44513;DHT22;30219;50.588;9.504;2023-03-21T09:43:28;13.40;99.90
44513;DHT22;30219;50.588;9.504;2023-03-21T09:45:58;13.50;99.90
44513;DHT22;30219;50.588;9.504;2023-03-21T09:48:34;13.50;99.90
44513;DHT22;30219;50.588;9.504;2023-03-21T09:51:04;13.60;99.90
44513;DHT22;30219;50.588;9.504;2023-03-21T09:53:35;13.40;99.90
44513;DHT22;30219;50.588;9.504;2023-03-21T09:56:03;13.30;99.90
44513;DHT22;30219;50.588;9.504;2023-03-21T09:58:36;13.40;99.90
44513;DHT22;30219;50.588;9.504;2023-03-21T10:03:32;13.40;99.90
44513;DHT22;30219;50.588;9.504;2023-03-21T10:06:02;13.40;99.90
44513;DHT22;30219;50.588;9.504;2023-03-21T10:08:36;13.90;99.90
44513;DHT22;30219;50.588;9.504;2023-03-21T10:13:33;13.30;99.90
44513;DHT22;30219;50.588;9.504;2023-03-21T10:16:01;13.30;99.90
44513;DHT22;30219;50.588;9.504;2023-03-21T10:18:28;13.30;99.90
44513;DHT22;30219;50.588;9.504;2023-03-21T10:20:53;13.50;99.90
44513;DHT22;30219;50.588;9.504;2023-03-21T10:23:20;13.70;99.90
44513;DHT22;30219;50.588;9.504;2023-03-21T10:25:50;13.30;99.90
44513;DHT22;30219;50.588;9.504;2023-03-21T10:28:21;13.40;99.90
44513;DHT22;30219;50.588;9.504;2023-03-21T10:33:34;13.10;99.90
44513;DHT22;30219;50.588;9.504;2023-03-21T10:35:59;13.10;99.90
44513;DHT22;30219;50.588;9.504;2023-03-21T10:38:26;13.00;99.90
44513;DHT22;30219;50.588;9.504;2023-03-21T10:40:52;13.30;99.90
44513;DHT22;30219;50.588;9.504;2023-03-21T10:43:19;13.50;99.90
44513;DHT22;30219;50.588;9.504;2023-03-21T10:46:12;13.40;99.90
44513;DHT22;30219;50.588;9.504;2023-03-21T10:48:39;13.60;99.90
44513;DHT22;30219;50.588;9.504;2023-03-21T10:51:05;13.40;99.90
44513;DHT22;30219;50.588;9.504;2023-03-21T10:53:32;13.30;99.90
44513;DHT22;30219;50.588;9.504;2023-03-21T10:55:59;13.10;99.90
44513;DHT22;30219;50.588;9.504;2023-03-21T10:58:26;13.00;99.90
44513;DHT22;30219;50.588;9.504;2023-03-21T11:00:56;13.00;99.90
44513;DHT22;30219;50.588;9.504;2023-03-21T11:03:23;12.80;99.90
44513;DHT22;30219;50.588;9.504;2023-03-21T11:08:28;12.70;99.90
44513;DHT22;30219;50.588;9.504;2023-03-21T11:11:04;12.90;99.90
44513;DHT22;30219;50.588;9.504;2023-03-21T11:13:36;12.80;99.90
44513;DHT22;30219;50.588;9.504;2023-03-21T11:16:04;12.70;99.90
44513;DHT22;30219;50.588;9.504;2023-03-21T11:18:30;12.50;99.90
44513;DHT22;30219;50.588;9.504;2023-03-21T11:21:00;12.30;99.90
44513;DHT22;30219;50.588;9.504;2023-03-21T11:23:29;12.30;99.90
44513;DHT22;30219;50.588;9.504;2023-03-21T11:25:57;12.40;99.90
44513;DHT22;30219;50.588;9.504;2023-03-21T11:28:24;12.30;99.90
44513;DHT22;30219;50.588;9.504;2023-03-21T11:30:54;12.20;99.90
44513;DHT22;30219;50.588;9.504;2023-03-21T11:33:21;12.00;99.90
44513;DHT22;30219;50.588;9.504;2023-03-21T11:35:57;12.00;99.90
44513;DHT22;30219;50.588;9.504;2023-03-21T11:38:23;12.00;99.90
44513;DHT22;30219;50.588;9.504;2023-03-21T11:40:51;12.00;99.90
44513;DHT22;30219;50.588;9.504;2023-03-21T11:45:54;12.20;99.90
44513;DHT22;30219;50.588;9.504;2023-03-21T11:48:20;12.40;99.90
44513;DHT22;30219;50.588;9.504;2023-03-21T11:50:46;12.20;99.90
44513;DHT22;30219;50.588;9.504;2023-03-21T11:53:23;12.30;99.90
44513;DHT22;30219;50.588;9.504;2023-03-21T11:58:39;12.20;99.90
44513;DHT22;30219;50.588;9.504;2023-03-21T12:01:11;12.10;99.90
44513;DHT22;30219;50.588;9.504;2023-03-21T12:06:51;11.90;99.90
44513;DHT22;30219;50.588;9.504;2023-03-21T12:11:58;11.50;99.90
44513;DHT22;30219;50.588;9.504;2023-03-21T12:17:09;11.80;99.90
44513;DHT22;30219;50.588;9.504;2023-03-21T12:22:05;11.80;99.90
44513;DHT22;30219;50.588;9.504;2023-03-21T12:29:50;12.00;99.90
44513;DHT22;30219;50.588;9.504;2023-03-21T12:32:19;11.90;99.90
44513;DHT22;30219;50.588;9.504;2023-03-21T12:45:30;11.80;99.90
44513;DHT22;30219;50.588;9.504;2023-03-21T12:47:59;11.90;99.90
44513;DHT22;30219;50.588;9.504;2023-03-21T12:50:31;11.80;99.90
44513;DHT22;30219;50.588;9.504;2023-03-21T12:53:17;11.70;99.90
44513;DHT22;30219;50.588;9.504;2023-03-21T12:55:46;11.80;99.90
44513;DHT22;30219;50.588;9.504;2023-03-21T12:58:16;11.80;99.90
44513;DHT22;30219;50.588;9.504;2023-03-21T13:03:13;11.70;99.90
44513;DHT22;30219;50.588;9.504;2023-03-21T13:05:52;11.50;99.90
44513;DHT22;30219;50.588;9.504;2023-03-21T13:10:47;11.40;99.90
44513;DHT22;30219;50.588;9.504;2023-03-21T13:18:52;11.20;99.90
44513;DHT22;30219;50.588;9.504;2023-03-21T13:24:16;11.30;99.90
44513;DHT22;30219;50.588;9.504;2023-03-21T13:26:44;11.30;99.90
44513;DHT22;30219;50.588;9.504;2023-03-21T13:29:23;11.30;99.90
44513;DHT22;30219;50.588;9.504;2023-03-21T13:31:50;11.10;99.90
44513;DHT22;30219;50.588;9.504;2023-03-21T13:34:17;11.00;99.90
44513;DHT22;30219;50.588;9.504;2023-03-21T13:36:45;11.00;99.90
44513;DHT22;30219;50.588;9.504;2023-03-21T13:39:16;10.90;99.90
44513;DHT22;30219;50.588;9.504;2023-03-21T13:41:42;10.70;99.90
44513;DHT22;30219;50.588;9.504;2023-03-21T13:44:15;10.50;99.90
44513;DHT22;30219;50.588;9.504;2023-03-21T13:46:54;10.30;99.90
44513;DHT22;30219;50.588;9.504;2023-03-21T13:49:28;10.20;99.90
44513;DHT22;30219;50.588;9.504;2023-03-21T13:51:54;10.30;99.90
44513;DHT22;30219;50.588;9.504;2023-03-21T13:54:30;10.20;99.90
44513;DHT22;30219;50.588;9.504;2023-03-21T13:57:19;10.30;99.90
44513;DHT22;30219;50.588;9.504;2023-03-21T13:59:44;10.30;99.90
44513;DHT22;30219;50.588;9.504;2023-03-21T14:04:35;10.20;99.90
44513;DHT22;30219;50.588;9.504;2023-03-21T14:07:05;10.30;99.90
44513;DHT22;30219;50.588;9.504;2023-03-21T14:09:39;10.30;99.90
44513;DHT22;30219;50.588;9.504;2023-03-21T14:12:06;10.40;99.90
44513;DHT22;30219;50.588;9.504;2023-03-21T14:14:37;10.40;99.90
44513;DHT22;30219;50.588;9.504;2023-03-21T14:17:10;10.40;99.90
44513;DHT22;30219;50.588;9.504;2023-03-21T14:19:36;10.40;99.90
44513;DHT22;30219;50.588;9.504;2023-03-21T14:22:02;10.40;99.90
44513;DHT22;30219;50.588;9.504;2023-03-21T14:24:28;10.40;99.90
44513;DHT22;30219;50.588;9.504;2023-03-21T14:26:53;10.40;99.90
44513;DHT22;30219;50.588;9.504;2023-03-21T14:29:22;10.30;99.90
44513;DHT22;30219;50.588;9.504;2023-03-21T14:31:49;10.30;99.90
44513;DHT22;30219;50.588;9.504;2023-03-21T14:34:14;10.20;99.90
44513;DHT22;30219;50.588;9.504;2023-03-21T14:36:41;10.10;99.90
44513;DHT22;30219;50.588;9.504;2023-03-21T14:44:21;10.20;99.90
44513;DHT22;30219;50.588;9.504;2023-03-21T14:46:58;10.10;99.90
44513;DHT22;30219;50.588;9.504;2023-03-21T14:49:25;10.00;99.90
44513;DHT22;30219;50.588;9.504;2023-03-21T14:51:55;10.00;99.90
44513;DHT22;30219;50.588;9.504;2023-03-21T14:54:21;10.00;99.90
44513;DHT22;30219;50.588;9.504;2023-03-21T14:56:48;10.10;99.90
44513;DHT22;30219;50.588;9.504;2023-03-21T14:59:16;10.10;99.90
44513;DHT22;30219;50.588;9.504;2023-03-21T15:01:41;10.00;99.90
44513;DHT22;30219;50.588;9.504;2023-03-21T15:04:10;10.00;99.90
44513;DHT22;30219;50.588;9.504;2023-03-21T15:06:49;10.00;99.90
44513;DHT22;30219;50.588;9.504;2023-03-21T15:09:20;10.00;99.90
44513;DHT22;30219;50.588;9.504;2023-03-21T15:11:48;10.00;99.90
44513;DHT22;30219;50.588;9.504;2023-03-21T15:14:14;10.00;99.90
44513;DHT22;30219;50.588;9.504;2023-03-21T15:16:40;9.90;99.90
44513;DHT22;30219;50.588;9.504;2023-03-21T15:19:06;9.90;99.90
44513;DHT22;30219;50.588;9.504;2023-03-21T15:21:36;9.90;99.90
44513;DHT22;30219;50.588;9.504;2023-03-21T15:24:10;9.90;99.90
44513;DHT22;30219;50.588;9.504;2023-03-21T15:26:39;9.90;99.90
44513;DHT22;30219;50.588;9.504;2023-03-21T15:29:04;9.80;99.90
44513;DHT22;30219;50.588;9.504;2023-03-21T15:31:35;9.80;99.90
44513;DHT22;30219;50.588;9.504;2023-03-21T15:34:01;9.80;99.90
44513;DHT22;30219;50.588;9.504;2023-03-21T15:36:32;9.80;99.90
44513;DHT22;30219;50.588;9.504;2023-03-21T15:38:59;9.80;99.90
44513;DHT22;30219;50.588;9.504;2023-03-21T15:41:27;9.70;99.90
44513;DHT22;30219;50.588;9.504;2023-03-21T15:43:59;9.70;99.90
44513;DHT22;30219;50.588;9.504;2023-03-21T15:46:44;9.60;99.90
44513;DHT22;30219;50.588;9.504;2023-03-21T15:51:39;9.60;99.90
44513;DHT22;30219;50.588;9.504;2023-03-21T15:54:07;9.60;99.90
44513;DHT22;30219;50.588;9.504;2023-03-21T15:56:34;9.60;99.90
44513;DHT22;30219;50.588;9.504;2023-03-21T15:59:01;9.50;99.90
44513;DHT22;30219;50.588;9.504;2023-03-21T16:01:31;9.40;99.90
44513;DHT22;30219;50.588;9.504;2023-03-21T16:04:06;9.30;99.90
44513;DHT22;30219;50.588;9.504;2023-03-21T16:06:33;9.30;99.90
44513;DHT22;30219;50.588;9.504;2023-03-21T16:14:01;9.30;99.90
44513;DHT22;30219;50.588;9.504;2023-03-21T16:16:28;9.30;99.90
44513;DHT22;30219;50.588;9.504;2023-03-21T16:18:54;9.40;99.90
44513;DHT22;30219;50.588;9.504;2023-03-21T16:21:21;9.30;99.90
44513;DHT22;30219;50.588;9.504;2023-03-21T16:23:47;9.30;99.90
44513;DHT22;30219;50.588;9.504;2023-03-21T16:26:13;9.40;99.90
44513;DHT22;30219;50.588;9.504;2023-03-21T16:28:40;9.40;99.90
44513;DHT22;30219;50.588;9.504;2023-03-21T16:31:08;9.50;99.90
44513;DHT22;30219;50.588;9.504;2023-03-21T16:33:35;9.50;99.90
44513;DHT22;30219;50.588;9.504;2023-03-21T16:36:01;9.50;99.90
44513;DHT22;30219;50.588;9.504;2023-03-21T16:38:26;9.50;99.90
44513;DHT22;30219;50.588;9.504;2023-03-21T16:40:52;9.50;99.90
44513;DHT22;30219;50.588;9.504;2023-03-21T16:43:17;9.50;99.90
44513;DHT22;30219;50.588;9.504;2023-03-21T16:45:43;9.40;99.90
44513;DHT22;30219;50.588;9.504;2023-03-21T16:48:09;9.40;99.90
44513;DHT22;30219;50.588;9.504;2023-03-21T16:50:40;9.30;99.90
44513;DHT22;30219;50.588;9.504;2023-03-21T16:53:06;9.20;99.90
44513;DHT22;30219;50.588;9.504;2023-03-21T16:55:32;9.20;99.90
44513;DHT22;30219;50.588;9.504;2023-03-21T16:57:59;9.10;99.90
44513;DHT22;30219;50.588;9.504;2023-03-21T17:00:25;9.20;99.90
44513;DHT22;30219;50.588;9.504;2023-03-21T17:02:51;9.20;99.90
44513;DHT22;30219;50.588;9.504;2023-03-21T17:05:21;9.20;99.90
44513;DHT22;30219;50.588;9.504;2023-03-21T17:07:46;9.10;99.90
44513;DHT22;30219;50.588;9.504;2023-03-21T17:10:16;9.10;99.90
44513;DHT22;30219;50.588;9.504;2023-03-21T17:12:42;9.00;99.90
44513;DHT22;30219;50.588;9.504;2023-03-21T17:15:08;9.00;99.90
44513;DHT22;30219;50.588;9.504;2023-03-21T17:17:33;9.00;99.90
44513;DHT22;30219;50.588;9.504;2023-03-21T17:19:59;9.00;99.90